Flight Track Log - Related Links

Times and Time Zones

All times are in EDT time to prevent confusion due to time zone crossing. See the XOJ793 flight status page for this flight to view local times or setup timezone preferences in your user account.

Time Position Orientation Groundspeed Altitude Reporting Facility
EDT Latitude Longitude Course Direction KTS MPH feet Rate Location/Type
Mon 01:22:25 PM 40.7589 -72.6547 179° South 248 285 6,300  Level Boston Center
Mon 01:23:26 PM 40.6858 -72.6308 166° South 270 311 10,300 2,732 Climbing Boston Center
Mon 01:24:28 PM 40.6031 -72.6967 211° Southwest 366 421 11,900 2,323 Climbing Boston Center
Mon 01:25:30 PM 40.5378 -72.8156 234° Southwest 403 464 15,100 2,952 Climbing Boston Center
Mon 01:26:32 PM 40.5092 -72.9628 256° West 411 473 18,000 2,710 Climbing Boston Center
Mon 01:27:34 PM 40.4811 -73.1133 256° West 412 474 20,700 2,081 Climbing Boston Center
Mon 01:28:36 PM 40.4522 -73.2572 255° West 409 471 22,300 1,452 Climbing Boston Center
Mon 01:29:38 PM 40.4228 -73.4069 256° West 421 484 23,700 1,500 Climbing Boston Center
Mon 01:30:40 PM 40.3858 -73.5950 256° West 442 509 25,400 1,512 Climbing Boston Center
Mon 01:31:41 PM 40.3544 -73.7522 255° West 455 524 26,800 1,366 Climbing Boston Center
Mon 01:32:43 PM 40.3222 -73.9158 256° West 463 533 28,200 1,412 Climbing Boston Center
Mon 01:33:40 PM 40.2881 -74.0825 255° West 457 526 29,600 1,412 Climbing New York Center
Mon 01:34:42 PM 40.2542 -74.2467 255° West 463 533 31,000 1,190 Climbing New York Center
Mon 01:35:41 PM 40.2200 -74.4133 255° West 474 545 32,000 513 Climbing New York Center
Mon 01:36:39 PM 40.1953 -74.5969 260° West 490 564 32,000 605 Level New York Center
Mon 01:37:40 PM 40.1792 -74.7700 263° West 495 570 33,200 1,190 Climbing New York Center
Mon 01:38:40 PM 40.1692 -74.9406 266° West 495 570 34,400 1,200 Climbing New York Center
Mon 01:39:40 PM 40.1567 -75.1108 265° West 484 557 35,600 1,190 Climbing New York Center
Mon 01:40:41 PM 40.1397 -75.2808 263° West 477 549 36,800 1,210 Climbing New York Center
Mon 01:41:39 PM 40.0942 -75.4381 249° West 477 549 38,000 1,210 Climbing New York Center
Mon 01:42:40 PM 40.0014 -75.5672 227° Southwest 458 527 39,200 1,180 Climbing New York Center
Mon 01:43:41 PM 39.9086 -75.6961 227° Southwest 478 550 40,400 1,190 Climbing New York Center
Mon 01:44:41 PM 39.8239 -75.8256 230° Southwest 483 556 41,600 1,220 Climbing New York Center
Mon 01:45:39 PM 39.7519 -75.9472 232° Southwest 483 556 42,800 706 Climbing New York Center
Mon 01:46:40 PM 39.6647 -76.0756 229° Southwest 483 556 43,000 125 Climbing New York Center
Mon 01:47:15 PM 39.6144 -76.1572 231° Southwest 484 557 43,000  Level Washington Center
Mon 01:48:16 PM 39.5261 -76.2911 229° Southwest 479 551 43,000  Level Washington Center
Mon 01:49:17 PM 39.4419 -76.4219 230° Southwest 479 551 43,000  Level Washington Center
Mon 01:50:15 PM 39.3556 -76.5525 229° Southwest 479 551 43,000 -50 Level Washington Center
Mon 01:51:16 PM 39.2689 -76.6881 230° Southwest 484 557 42,900 -750 Descending Washington Center
Mon 01:52:15 PM 39.1822 -76.8258 231° Southwest 489 563 41,500 -1,462 Descending Washington Center
Mon 01:53:15 PM 39.0975 -76.9583 231° Southwest 496 571 40,000 -1,500 Descending Washington Center
Mon 01:54:15 PM 39.0064 -77.0822 227° Southwest 490 564 38,500 -984 Descending Washington Center
Mon 01:55:17 PM 38.9028 -77.1947 220° Southwest 490 564 38,000 -738 Descending Washington Center
Mon 01:56:17 PM 38.7947 -77.3097 220° Southwest 503 579 37,000 -1,881 Descending Washington Center
Mon 01:57:15 PM 38.6889 -77.4242 220° Southwest 509 586 34,300 -2,847 Descending Washington Center
Mon 01:58:15 PM 38.5786 -77.5436 220° Southwest 509 586 31,400 -2,132 Descending Washington Center
Mon 01:59:16 PM 38.4744 -77.6628 222° Southwest 509 586 30,000 -694 Descending Washington Center
Mon 02:00:16 PM 38.3639 -77.7789 219° Southwest 515 593 30,000  Level Washington Center
Mon 02:01:17 PM 38.2597 -77.8922 221° Southwest 515 593 30,000  Level Washington Center
Mon 02:02:15 PM 38.1511 -78.0078 220° Southwest 515 593 30,000  Level Washington Center
Mon 02:03:15 PM 38.0444 -78.1231 220° Southwest 515 593 30,000 -198 Level Washington Center
Mon 02:04:16 PM 37.9519 -78.2517 228° Southwest 500 575 29,600 -934 Descending Washington Center
Mon 02:05:17 PM 37.8592 -78.3825 228° Southwest 505 581 28,100 -807 Descending Washington Center
Mon 02:06:15 PM 37.7600 -78.5258 229° Southwest 505 581 28,000 -555 Descending Washington Center
Mon 02:07:16 PM 37.6669 -78.6561 228° Southwest 505 581 27,000 -492 Descending Washington Center
Mon 02:08:17 PM 37.5758 -78.7861 229° Southwest 505 581 27,000  Level Washington Center
Mon 02:09:15 PM 37.4850 -78.9131 228° Southwest 505 581 27,000 -51 Level Washington Center
Mon 02:10:15 PM 37.3958 -79.0400 229° Southwest 500 575 26,900 -793 Descending Washington Center
Mon 02:11:16 PM 37.3044 -79.1664 228° Southwest 500 575 25,400 -1,488 Descending Washington Center
Mon 02:12:16 PM 37.2150 -79.2925 228° Southwest 500 575 23,900 -1,488 Descending Washington Center
Mon 02:13:17 PM 37.1158 -79.3947 219° Southwest 482 555 22,400 -1,537 Descending Washington Center
Mon 02:14:17 PM 36.9950 -79.4614 204° Southwest 470 541 20,800 -2,034 Descending Washington Center
Mon 02:15:15 PM 36.8867 -79.5208 204° Southwest 455 524 18,400 -2,450 Descending Washington Center
Mon 02:16:17 PM 36.7781 -79.5803 204° Southwest 435 501 15,900 -2,419 Descending Washington Center
Mon 02:18:00 PM 36.5981 -79.6769 203° Southwest  Level Estimated
Mon 02:25:00 PM 36.1013 -79.9411 203° Southwest  Level Estimated
Mon 02:26:00 PM 36.1000 -79.9333 15° North  Level FlightAware Approximate
Mon 02:27:00 PM 36.1013 -79.9411 15° North  Level Estimated
Mon 02:28:00 PM 36.1000 -79.9333 15° North  Level FlightAware Approximate
Mon 02:29:00 PM 36.1013 -79.9411 15° North  Level Estimated
Mon 02:30:00 PM 36.1000 -79.9333 15° North  Level FlightAware Approximate
Mon 02:31:00 PM 36.1013 -79.9411 15° North  Level Estimated
Mon 02:32:00 PM 36.1000 -79.9333 15° North  Level FlightAware Approximate
Mon 02:33:00 PM 36.1013 -79.9411 15° North  Level Estimated

Login

Don't have an account? Register now (free) for customized features, flight alerts, and more!